Time;durP1;ratioP1;P1;durP2;ratioP2;P2;SDS_P1;SDS_P2;PMS_P1;PMS_P2;Temp;Humidity;BMP_temperature;BMP_pressure;BME280_temperature;BME280_humidity;BME280_pressure;Samples;Min_cycle;Max_cycle;Signal;HPM_P1;HPM_P2
2021/12/18 00:00:11;;;;;;;34.70;32.72;;;;;;;20.08;46.12;103861.00;5039392;28;20044;-88
2021/12/18 00:02:39;;;;;;;34.20;32.45;;;;;;;20.07;46.15;103867.56;5038710;28;20033;-87
2021/12/18 00:05:05;;;;;;;34.17;32.47;;;;;;;20.09;45.98;103870.06;5023141;28;20041;-88
2021/12/18 00:07:31;;;;;;;34.40;32.60;;;;;;;20.08;46.08;103871.13;5040202;28;20275;-87
2021/12/18 00:09:57;;;;;;;33.90;32.20;;;;;;;20.08;46.18;103863.75;5044708;28;20029;-88
2021/12/18 00:12:23;;;;;;;34.00;32.30;;;;;;;20.08;46.12;103863.75;5036093;28;20041;-88
2021/12/18 00:15:11;;;;;;;34.58;32.78;;;;;;;20.08;46.14;103866.50;5038738;28;20044;-88
2021/12/18 00:17:39;;;;;;;33.88;31.98;;;;;;;20.07;46.24;103859.31;5044155;28;20358;-88
2021/12/18 00:20:15;;;;;;;33.25;31.55;;;;;;;20.08;46.25;103857.41;5036999;28;20038;-88
2021/12/18 00:22:44;;;;;;;33.90;32.08;;;;;;;20.07;46.19;103856.56;5045061;28;20037;-89
2021/12/18 00:25:09;;;;;;;;;;;;;;;20.05;45.99;103858.72;5030060;28;20056;-90
2021/12/18 00:27:38;;;;;;;32.80;31.10;;;;;;;20.07;45.99;103861.22;5058394;28;19908;-90
2021/12/18 00:30:06;;;;;;;33.03;31.42;;;;;;;20.05;45.75;103849.63;5044073;28;20044;-89
2021/12/18 00:32:34;;;;;;;33.38;31.48;;;;;;;20.06;46.02;103854.06;5061047;28;20029;-96
2021/12/18 00:35:08;;;;;;;32.30;30.70;;;;;;;20.05;46.05;103850.47;5048637;28;20067;-92
2021/12/18 00:37:33;;;;;;;34.15;32.35;;;;;;;20.06;45.61;103852.16;5042442;28;20021;-89
2021/12/18 00:40:00;;;;;;;33.33;31.38;;;;;;;20.06;45.78;103846.69;5052342;28;20037;-83
2021/12/18 00:45:06;;;;;;;33.85;31.20;;;;;;;20.06;45.53;103843.94;5050296;28;20069;-87
2021/12/18 00:47:31;;;;;;;34.42;32.33;;;;;;;20.07;45.76;103844.75;5047187;28;20082;-85
2021/12/18 00:49:57;;;;;;;32.25;30.65;;;;;;;20.07;45.82;103844.75;5033155;28;20029;-86
2021/12/18 00:52:23;;;;;;;34.83;31.92;;;;;;;20.06;45.96;103841.19;5045270;28;20085;-87
2021/12/18 00:54:49;;;;;;;32.80;31.00;;;;;;;20.06;45.65;103846.69;5053494;28;20116;-89
2021/12/18 00:57:24;;;;;;;;;;;;;;;;;;;;;
2021/12/18 00:59:52;;;;;;;32.88;30.67;;;;;;;20.06;45.65;103846.69;5054212;28;20033;-89
2021/12/18 01:02:18;;;;;;;32.22;30.52;;;;;;;20.07;45.78;103847.50;5038537;28;20059;-89
2021/12/18 01:04:44;;;;;;;34.40;31.90;;;;;;;20.07;45.45;103844.75;5040371;28;20033;-88
2021/12/18 01:07:09;;;;;;;36.17;33.97;;;;;;;20.07;45.79;103845.59;5050689;28;20120;-90
2021/12/18 01:09:54;;;;;;;34.67;32.58;;;;;;;20.07;45.30;103836.53;5055653;28;20128;-89
2021/12/18 01:12:25;;;;;;;33.10;31.27;;;;;;;20.07;45.48;103833.78;5030221;28;20033;-88
2021/12/18 01:22:44;;;;;;;34.22;32.40;;;;;;;20.06;45.19;103832.13;5038170;28;20531;-87
2021/12/18 01:25:10;;;;;;;33.65;31.95;;;;;;;20.06;45.17;103837.63;5039417;28;20033;-89
2021/12/18 01:27:38;;;;;;;34.45;32.55;;;;;;;20.04;45.03;103829.59;5042366;28;20052;-89
2021/12/18 01:30:06;;;;;;;34.45;32.65;;;;;;;20.04;44.98;103835.09;5027837;28;20056;-89
2021/12/18 01:32:32;;;;;;;33.90;32.20;;;;;;;20.04;45.17;103832.34;5032261;28;20122;-90
2021/12/18 01:34:57;;;;;;;31.95;30.35;;;;;;;20.04;44.98;103829.59;5026183;28;20592;-90
2021/12/18 01:37:23;;;;;;;33.47;31.77;;;;;;;20.05;44.92;103835.91;5018804;28;20033;-89
2021/12/18 01:39:52;;;;;;;33.95;32.15;;;;;;;20.03;44.83;103838.91;5039740;28;21465;-89
2021/12/18 01:52:55;;;;;;;32.65;31.05;;;;;;;20.01;44.47;103843.78;5051943;28;20064;-90
2021/12/18 01:55:29;;;;;;;33.53;31.73;;;;;;;20.01;44.54;103834.72;5035889;28;20091;-90
2021/12/18 01:57:58;;;;;;;33.33;31.63;;;;;;;20.00;44.85;103836.59;5051983;28;20484;-91
2021/12/18 02:00:31;;;;;;;34.20;32.45;;;;;;;20.01;44.26;103840.22;5039447;28;20033;-91
2021/12/18 02:02:57;;;;;;;34.03;32.33;;;;;;;20.00;44.66;103839.34;5049377;28;20469;-90
2021/12/18 02:05:26;;;;;;;34.90;32.95;;;;;;;20.01;44.86;103837.47;5033349;28;20053;-90
2021/12/18 02:07:51;;;;;;;32.45;30.85;;;;;;;19.99;44.67;103829.47;5048000;28;20068;-91
2021/12/18 02:10:25;;;;;;;34.03;32.22;;;;;;;20.00;44.70;103831.13;5045865;28;20497;-89
2021/12/18 02:20:48;;;;;;;34.15;32.35;;;;;;;19.98;44.66;103836.03;5051803;28;20052;-91
2021/12/18 02:23:16;;;;;;;32.35;30.50;;;;;;;19.97;44.27;103834.34;5043003;28;20060;-90
2021/12/18 02:25:44;;;;;;;34.45;32.65;;;;;;;19.96;44.54;103832.66;5042085;28;20037;-90
2021/12/18 02:28:16;;;;;;;32.93;31.23;;;;;;;19.95;44.77;103830.16;5033340;28;20034;-90
2021/12/18 02:30:42;;;;;;;34.60;32.80;;;;;;;19.95;44.46;103820.00;5047368;28;20029;-91
2021/12/18 02:33:08;;;;;;;35.10;33.35;;;;;;;19.96;44.48;103826.31;5052314;28;20036;-90
2021/12/18 02:35:42;;;;;;;33.08;31.38;;;;;;;19.95;44.46;103820.00;5051016;28;20060;-90
2021/12/18 02:38:33;;;;;;;33.03;31.38;;;;;;;19.96;44.14;103820.84;5052350;28;20079;-90
2021/12/18 02:41:15;;;;;;;32.95;31.25;;;;;;;19.93;44.55;103824.88;5051375;28;20289;-91
2021/12/18 02:43:41;;;;;;;34.00;32.30;;;;;;;19.94;44.28;103815.59;5041035;28;20079;-90
2021/12/18 02:46:09;;;;;;;31.40;29.80;;;;;;;19.94;44.54;103820.25;5032307;28;20029;-91
2021/12/18 02:48:41;;;;;;;32.78;30.98;;;;;;;19.93;44.50;103822.13;5032693;28;20052;-89
2021/12/18 02:51:09;;;;;;;34.47;32.75;;;;;;;19.92;44.42;103820.47;5041680;28;20055;-88
2021/12/18 02:53:40;;;;;;;32.80;31.10;;;;;;;19.92;44.54;103814.97;5049710;28;20469;-90
2021/12/18 02:56:19;;;;;;;33.53;31.83;;;;;;;19.92;44.37;103814.16;5042013;28;20098;-90
2021/12/18 02:58:49;;;;;;;33.50;31.70;;;;;;;19.92;44.25;103814.97;5050447;28;20083;-91
2021/12/18 03:01:21;;;;;;;33.70;32.00;;;;;;;19.91;44.38;103812.47;5050518;28;20075;-89
2021/12/18 03:03:48;;;;;;;34.00;32.30;;;;;;;19.90;44.46;103814.38;5040202;28;20040;-90
2021/12/18 03:06:29;;;;;;;33.45;31.75;;;;;;;19.89;44.52;103810.81;5051067;28;20033;-90
2021/12/18 03:25:00;;;;;;;34.25;32.40;;;;;;;19.83;44.57;103802.66;5048439;28;20077;-90
2021/12/18 03:27:25;;;;;;;33.55;31.85;;;;;;;19.83;44.49;103806.25;5051943;28;20033;-90
2021/12/18 03:29:51;;;;;;;34.75;32.95;;;;;;;19.82;44.52;103804.56;5052185;28;20520;-90
2021/12/18 03:32:16;;;;;;;33.35;31.75;;;;;;;19.84;44.60;103804.34;5024124;28;20029;-90
2021/12/18 03:34:42;;;;;;;34.80;32.90;;;;;;;19.83;44.67;103805.38;5034303;28;20036;-90
2021/12/18 03:37:08;;;;;;;32.65;31.05;;;;;;;19.83;44.69;103806.25;5037167;28;20041;-91
2021/12/18 03:39:35;;;;;;;33.60;31.92;;;;;;;19.83;44.70;103799.91;5059500;28;20546;-91
2021/12/18 03:42:01;;;;;;;33.67;31.88;;;;;;;19.83;44.37;103805.38;5054563;28;20445;-91
2021/12/18 03:44:27;;;;;;;33.13;31.42;;;;;;;19.82;44.80;103804.56;5035076;28;20045;-92
2021/12/18 03:46:55;;;;;;;34.53;32.75;;;;;;;19.82;44.62;103799.06;5038325;28;20047;-91
2021/12/18 03:49:20;;;;;;;33.20;31.50;;;;;;;19.81;44.70;103802.91;5054345;28;20037;-92
2021/12/18 03:51:45;;;;;;;33.88;32.17;;;;;;;19.81;44.35;103800.16;5018863;28;20100;-90
2021/12/18 03:54:11;;;;;;;33.58;31.88;;;;;;;19.80;44.50;103801.19;5033832;28;20041;-91
2021/12/18 03:56:36;;;;;;;33.20;31.60;;;;;;;19.81;44.56;103804.81;5037651;28;20082;-91
2021/12/18 03:59:02;;;;;;;32.55;30.95;;;;;;;19.81;44.52;103807.56;5045930;28;20038;-90
2021/12/18 04:01:30;;;;;;;34.90;32.97;;;;;;;19.79;44.51;103799.53;5032109;28;20040;-90
2021/12/18 04:03:55;;;;;;;31.83;30.23;;;;;;;19.79;44.50;103810.50;5042743;28;20040;-89
2021/12/18 04:06:23;;;;;;;32.13;30.48;;;;;;;19.78;44.50;103803.38;5071266;28;20104;-89
2021/12/18 04:08:49;;;;;;;33.88;32.08;;;;;;;19.78;44.44;103800.63;5034917;28;20034;-91
2021/12/18 04:11:17;;;;;;;32.63;31.02;;;;;;;19.77;44.71;103798.09;5047737;28;20082;-90
2021/12/18 04:13:45;;;;;;;33.33;31.48;;;;;;;19.78;44.54;103799.75;5059601;28;20064;-91
2021/12/18 04:16:11;;;;;;;;;;;;;;;19.75;44.68;103803.78;5054928;28;20029;-90
2021/12/18 04:18:37;;;;;;;32.05;30.45;;;;;;;19.75;44.61;103797.47;5046119;28;19913;-91
2021/12/18 04:21:02;;;;;;;32.70;31.00;;;;;;;19.75;44.48;103814.78;5035069;28;20033;-90
2021/12/18 04:23:28;;;;;;;32.00;30.40;;;;;;;19.74;44.54;103807.63;5046801;28;20045;-90
2021/12/18 04:25:55;;;;;;;33.53;31.83;;;;;;;19.74;44.32;103804.88;5046696;28;20447;-90
2021/12/18 04:28:21;;;;;;;31.92;30.33;;;;;;;19.74;44.67;103804.88;5042313;28;20040;-90
2021/12/18 04:30:52;;;;;;;33.45;31.77;;;;;;;19.74;44.58;103798.56;5054517;28;20053;-91
2021/12/18 04:33:18;;;;;;;32.88;31.27;;;;;;;19.72;44.49;103798.78;5048272;28;20041;-90
2021/12/18 04:35:44;;;;;;;32.63;30.98;;;;;;;19.73;44.48;103805.97;5051929;28;20493;-89
2021/12/18 04:38:10;;;;;;;32.33;30.73;;;;;;;19.73;44.63;103810.59;5054890;28;20029;-90
2021/12/18 04:40:41;;;;;;;32.80;31.20;;;;;;;19.73;44.69;103805.09;5050154;28;20042;-91
2021/12/18 04:43:06;;;;;;;33.80;32.03;;;;;;;19.73;44.80;103810.59;5046493;28;20033;-91
2021/12/18 04:45:40;;;;;;;32.60;31.00;;;;;;;19.72;44.69;103812.50;5053479;28;20535;-90
2021/12/18 04:48:05;;;;;;;33.55;31.85;;;;;;;19.71;44.34;103810.84;5052763;28;20025;-90
2021/12/18 04:50:33;;;;;;;33.22;31.55;;;;;;;19.71;44.87;103810.84;5045317;28;20040;-90
2021/12/18 04:52:58;;;;;;;33.92;32.22;;;;;;;19.70;44.76;103809.13;5046076;28;20048;-90
2021/12/18 04:55:26;;;;;;;34.25;32.58;;;;;;;19.71;44.66;103819.06;5031614;28;20386;-91
2021/12/18 04:57:55;;;;;;;34.00;32.20;;;;;;;19.70;44.58;103817.38;5052431;28;20059;-91
2021/12/18 05:00:28;;;;;;;31.95;30.35;;;;;;;19.70;44.54;103816.53;5049456;28;20025;-90
2021/12/18 05:03:01;;;;;;;33.92;32.20;;;;;;;19.70;44.63;103822.03;5052808;28;20040;-90
2021/12/18 05:05:27;;;;;;;33.15;31.50;;;;;;;19.69;44.46;103820.34;5053068;28;20060;-90
2021/12/18 05:07:59;;;;;;;33.85;32.05;;;;;;;19.69;44.67;103815.69;5042739;28;20064;-89
2021/12/18 05:10:25;;;;;;;32.83;31.23;;;;;;;19.69;44.58;103817.63;5035092;28;20481;-90
2021/12/18 05:12:53;;;;;;;32.58;30.88;;;;;;;19.69;44.79;103825.84;5033760;28;20048;-90
2021/12/18 05:15:18;;;;;;;32.90;31.27;;;;;;;19.69;44.82;103823.09;5049243;28;20041;-90
2021/12/18 05:17:44;;;;;;;32.92;31.33;;;;;;;19.68;44.69;103827.75;5037147;28;20351;-89
2021/12/18 05:20:15;;;;;;;34.40;32.60;;;;;;;19.67;44.83;103828.81;5053592;28;20501;-90
2021/12/18 05:22:42;;;;;;;32.80;31.20;;;;;;;19.67;44.64;103824.16;5036338;28;20120;-90
2021/12/18 05:25:08;;;;;;;32.17;30.40;;;;;;;19.67;44.93;103826.06;5052345;28;20036;-89
2021/12/18 05:27:36;;;;;;;32.25;30.65;;;;;;;19.67;44.47;103826.06;5045085;28;20144;-90
2021/12/18 05:30:06;;;;;;;32.90;31.20;;;;;;;19.66;44.69;103825.19;5035806;28;20743;-90
2021/12/18 05:32:34;;;;;;;32.30;30.70;;;;;;;19.66;44.75;103827.09;5048034;28;20108;-91
2021/12/18 05:35:00;;;;;;;32.15;30.45;;;;;;;19.65;44.67;103825.41;5035809;28;20039;-91
2021/12/18 05:39:51;;;;;;;34.00;32.33;;;;;;;19.64;44.51;103824.56;5052128;28;20041;-91
2021/12/18 05:42:17;;;;;;;33.50;31.80;;;;;;;19.64;44.79;103830.06;5035132;28;20110;-91
2021/12/18 05:44:44;;;;;;;31.08;29.58;;;;;;;19.64;44.27;103827.31;5052195;28;20043;-91
2021/12/18 05:47:09;;;;;;;32.88;31.27;;;;;;;19.65;44.56;103825.41;5051855;28;20029;-90
2021/12/18 05:49:35;;;;;;;32.92;31.23;;;;;;;19.65;44.57;103825.41;5035795;28;20469;-90
2021/12/18 05:52:01;;;;;;;33.38;31.67;;;;;;;19.64;44.46;103821.00;5034653;28;20049;-91
2021/12/18 05:54:26;;;;;;;32.50;30.90;;;;;;;19.63;44.68;103825.66;5051931;28;20044;-91
2021/12/18 05:56:52;;;;;;;32.08;30.45;;;;;;;19.63;44.66;103831.13;5031914;28;20458;-91
2021/12/18 05:59:17;;;;;;;32.40;30.80;;;;;;;19.63;44.67;103833.03;5042584;28;20460;-91
2021/12/18 06:01:43;;;;;;;32.20;30.60;;;;;;;19.63;44.82;103831.13;5021808;28;20478;-91
2021/12/18 06:04:08;;;;;;;32.90;31.20;;;;;;;19.62;44.69;103832.19;5015246;28;20116;-91
2021/12/18 06:06:36;;;;;;;31.60;30.00;;;;;;;19.62;45.01;103832.19;5036330;28;20407;-91
2021/12/18 06:09:01;;;;;;;34.13;32.30;;;;;;;19.62;44.54;103829.44;5032059;28;20025;-90
2021/12/18 06:11:30;;;;;;;32.80;31.10;;;;;;;19.62;44.55;103823.97;5035297;28;20055;-91
2021/12/18 06:13:56;;;;;;;33.80;32.10;;;;;;;19.61;44.56;103826.94;5051471;28;20032;-90
2021/12/18 06:16:22;;;;;;;32.78;31.15;;;;;;;19.60;44.66;103823.34;5034829;28;20521;-91
2021/12/18 06:18:50;;;;;;;31.88;30.27;;;;;;;19.60;44.57;103823.34;5026975;28;20033;-91
2021/12/18 06:21:18;;;;;;;33.15;31.45;;;;;;;19.59;44.58;103821.69;5044161;28;20033;-91
2021/12/18 06:23:46;;;;;;;32.88;31.20;;;;;;;19.59;45.13;103820.84;5026418;28;20041;-91
2021/12/18 06:26:12;;;;;;;;;;;;;;;19.56;44.66;103822.16;5032474;28;20541;-91
2021/12/18 06:28:37;;;;;;;31.70;30.10;;;;;;;19.57;44.52;103823.81;5035102;28;19916;-91
2021/12/18 06:31:05;;;;;;;33.45;31.65;;;;;;;19.56;44.63;103824.06;5051568;28;20037;-96
2021/12/18 06:33:34;;;;;;;31.20;29.60;;;;;;;19.56;44.57;103815.84;5039077;28;20025;-91
2021/12/18 06:35:59;;;;;;;31.77;30.17;;;;;;;19.55;44.57;103820.47;5038032;28;20503;-91
2021/12/18 06:38:25;;;;;;;32.72;31.13;;;;;;;19.55;44.53;103814.13;5049856;28;20090;-91
2021/12/18 06:40:51;;;;;;;33.22;31.58;;;;;;;19.54;44.67;103821.53;5052266;28;20043;-88
2021/12/18 06:43:16;;;;;;;32.33;30.73;;;;;;;19.56;44.58;103826.81;5034775;28;20029;-92
2021/12/18 06:45:42;;;;;;;32.55;30.95;;;;;;;19.54;44.66;103823.44;5037031;28;20203;-90
2021/12/18 06:48:07;;;;;;;34.30;32.60;;;;;;;19.55;44.59;103819.63;5015397;28;20033;-90
2021/12/18 06:50:34;;;;;;;32.38;30.77;;;;;;;19.54;44.78;103818.78;5031834;28;20048;-89
2021/12/18 06:53:02;;;;;;;35.00;33.15;;;;;;;19.54;44.67;103818.78;5017053;28;20136;-91
2021/12/18 06:55:31;;;;;;;32.45;30.85;;;;;;;19.54;44.76;103823.44;5051710;28;20093;-91
2021/12/18 06:57:59;;;;;;;34.28;32.53;;;;;;;19.55;44.75;103816.88;5051171;28;20029;-91
2021/12/18 07:00:47;;;;;;;32.90;31.30;;;;;;;19.54;44.59;103817.97;5051020;28;20111;-93
2021/12/18 07:03:15;;;;;;;32.38;30.67;;;;;;;19.52;44.81;103809.13;5035513;28;20014;-90
2021/12/18 07:05:40;;;;;;;32.15;30.48;;;;;;;19.53;45.11;103810.78;5061453;28;20029;-89
2021/12/18 07:08:08;;;;;;;33.55;31.85;;;;;;;19.53;44.83;103811.66;5046421;28;20071;-92
2021/12/18 07:10:35;;;;;;;31.15;29.55;;;;;;;19.52;45.00;103806.38;5052129;28;20033;-92
2021/12/18 07:13:11;;;;;;;34.05;32.25;;;;;;;19.52;45.05;103804.47;5062567;28;20039;-90
2021/12/18 07:15:40;;;;;;;30.67;29.17;;;;;;;19.52;44.88;103806.38;5057460;28;20033;-91
2021/12/18 07:18:06;;;;;;;33.20;31.48;;;;;;;19.51;44.87;103805.53;5040650;28;20036;-92
2021/12/18 07:20:37;;;;;;;32.03;30.42;;;;;;;19.51;44.93;103808.28;5060405;28;20091;-92
2021/12/18 07:23:07;;;;;;;33.92;32.13;;;;;;;19.51;44.75;103808.28;5064126;28;20037;-92
2021/12/18 07:25:33;;;;;;;33.38;31.58;;;;;;;19.51;44.99;103811.03;5061681;28;20040;-93
2021/12/18 07:28:01;;;;;;;30.92;29.35;;;;;;;19.50;44.82;103806.59;5048392;28;20104;-90
2021/12/18 07:30:27;;;;;;;31.13;29.63;;;;;;;19.49;44.99;103810.41;5036625;28;20037;-92
2021/12/18 07:32:52;;;;;;;31.85;30.25;;;;;;;19.50;44.90;103800.28;5037597;28;20121;-93
2021/12/18 07:35:18;;;;;;;31.67;30.08;;;;;;;19.50;44.86;103805.75;5065799;28;20033;-93
2021/12/18 07:37:46;;;;;;;31.27;29.70;;;;;;;19.50;44.52;103805.75;5041998;28;20025;-91
2021/12/18 07:40:12;;;;;;;33.45;31.55;;;;;;;19.49;44.49;103810.41;5048352;28;20070;-91
2021/12/18 07:42:38;;;;;;;34.58;32.80;;;;;;;19.49;45.09;103815.06;5051101;28;20034;-89
2021/12/18 07:45:04;;;;;;;33.80;32.10;;;;;;;19.49;44.86;103815.91;5038519;28;20029;-91
2021/12/18 07:47:30;;;;;;;32.47;30.88;;;;;;;19.48;44.74;103825.19;5040525;28;20108;-90
2021/12/18 07:49:55;;;;;;;32.17;30.58;;;;;;;19.48;45.00;103816.13;5031947;28;20133;-91
2021/12/18 07:52:21;;;;;;;31.42;29.83;;;;;;;19.48;45.06;103824.34;5037230;28;20079;-90
2021/12/18 07:54:47;;;;;;;31.65;30.05;;;;;;;19.48;44.88;103825.19;5050209;28;20039;-90
2021/12/18 07:57:13;;;;;;;33.22;31.42;;;;;;;19.48;44.93;103825.19;5038168;28;20061;-90
2021/12/18 07:59:38;;;;;;;32.33;30.73;;;;;;;19.47;44.76;103826.25;5054362;28;20029;-89
2021/12/18 08:02:05;;;;;;;33.08;31.38;;;;;;;19.47;44.77;103834.47;5051069;28;20044;-90
2021/12/18 08:04:34;;;;;;;31.38;29.77;;;;;;;19.47;44.89;103829.00;5034852;28;20025;-88
2021/12/18 08:07:01;;;;;;;32.55;30.90;;;;;;;19.48;44.75;103830.69;5039771;28;20026;-88
2021/12/18 08:09:27;;;;;;;31.98;30.38;;;;;;;19.48;44.66;103827.09;5044140;28;20033;-90
2021/12/18 08:12:01;;;;;;;31.75;30.05;;;;;;;19.47;45.08;103834.47;5034966;28;20036;-90
2021/12/18 08:14:27;;;;;;;32.53;30.92;;;;;;;19.46;44.74;103836.38;5043654;28;20041;-89
2021/12/18 08:16:52;;;;;;;32.25;30.65;;;;;;;19.45;44.91;103834.72;5044685;28;20306;-90
2021/12/18 08:19:17;;;;;;;32.85;31.15;;;;;;;19.45;44.97;103837.47;5026748;28;20045;-90
2021/12/18 08:21:43;;;;;;;32.25;30.58;;;;;;;19.45;45.15;103833.84;5055088;28;20040;-90
2021/12/18 08:24:08;;;;;;;33.05;31.25;;;;;;;19.45;44.81;103840.19;5052734;28;20025;-90
2021/12/18 08:26:34;;;;;;;31.65;30.05;;;;;;;19.44;45.05;103841.25;5053123;28;20538;-90
2021/12/18 08:28:59;;;;;;;33.92;32.20;;;;;;;19.44;44.89;103835.75;5036719;28;20104;-89
2021/12/18 08:31:25;;;;;;;33.13;31.42;;;;;;;19.44;45.03;103840.41;5037075;28;20382;-88
2021/12/18 08:33:50;;;;;;;32.13;30.52;;;;;;;19.44;44.82;103834.94;5053904;28;20393;-90
2021/12/18 08:36:16;;;;;;;33.47;31.77;;;;;;;19.42;45.01;103832.41;5036503;28;20037;-90
2021/12/18 08:38:41;;;;;;;31.80;30.20;;;;;;;19.43;44.91;103836.00;5044247;28;20037;-90
2021/12/18 08:41:08;;;;;;;33.38;31.70;;;;;;;19.43;44.51;103834.09;5049498;28;20390;-89
2021/12/18 08:43:33;;;;;;;31.48;29.98;;;;;;;19.42;44.66;103843.38;5054005;28;20028;-89
2021/12/18 08:45:59;;;;;;;32.38;30.77;;;;;;;19.42;44.98;103835.16;5033074;28;20052;-92
2021/12/18 08:48:24;;;;;;;34.15;32.45;;;;;;;19.42;44.64;103835.16;5042942;28;20900;-91
2021/12/18 08:50:49;;;;;;;32.08;30.48;;;;;;;19.42;45.05;103831.56;5036461;28;20032;-90
2021/12/18 08:53:15;;;;;;;34.53;32.72;;;;;;;19.42;45.08;103837.06;5053780;28;20547;-95
2021/12/18 08:55:40;;;;;;;33.25;31.48;;;;;;;19.42;45.60;103839.81;5036779;28;20480;-88
2021/12/18 08:58:06;;;;;;;35.15;32.95;;;;;;;19.41;46.27;103836.22;5020359;28;20092;-89
2021/12/18 09:00:33;;;;;;;32.45;29.83;;;;;;;19.41;46.76;103836.22;5052209;28;20037;-88
2021/12/18 09:03:00;;;;;;;33.85;30.98;;;;;;;19.43;46.63;103825.06;5045295;28;20098;-89
2021/12/18 09:05:27;;;;;;;31.80;29.17;;;;;;;19.43;46.79;103830.53;5018817;28;20038;-90
2021/12/18 09:07:53;;;;;;;33.25;31.42;;;;;;;19.42;46.92;103829.66;5052192;28;20060;-89
2021/12/18 09:10:20;;;;;;;32.60;30.70;;;;;;;19.43;46.69;103831.38;5036298;28;20468;-90
2021/12/18 09:12:46;;;;;;;32.28;30.30;;;;;;;19.43;46.77;103833.28;5045870;28;20532;-88
2021/12/18 09:15:11;;;;;;;32.15;30.33;;;;;;;19.42;46.99;103832.41;5034399;28;20037;-85
2021/12/18 09:17:37;;;;;;;31.48;29.70;;;;;;;19.43;47.32;103833.28;5051152;28;20037;-83
2021/12/18 09:20:04;;;;;;;31.17;29.35;;;;;;;19.42;47.15;103832.41;5049821;28;20033;-86
2021/12/18 09:22:29;;;;;;;31.80;30.05;;;;;;;19.42;47.44;103832.41;5018198;28;20033;-87
2021/12/18 09:24:55;;;;;;;32.08;30.17;;;;;;;19.43;48.01;103833.28;5053752;28;20439;-90
2021/12/18 09:27:22;;;;;;;34.03;31.70;;;;;;;19.43;47.99;103844.25;5050179;28;20440;-89
2021/12/18 09:29:47;;;;;;;32.85;30.58;;;;;;;19.44;48.00;103837.69;5030423;28;20769;-88
2021/12/18 09:32:13;;;;;;;32.63;30.52;;;;;;;19.44;47.87;103845.91;5020729;28;20033;-89
2021/12/18 09:34:38;;;;;;;33.10;30.98;;;;;;;19.42;48.24;103837.88;5016632;28;20034;-88
2021/12/18 09:37:04;;;;;;;32.28;30.25;;;;;;;19.44;48.14;103844.00;5036396;28;20037;-85
2021/12/18 09:39:30;;;;;;;32.42;30.58;;;;;;;19.42;48.64;103848.84;5046918;28;20041;-86
2021/12/18 09:41:57;;;;;;;32.67;30.80;;;;;;;19.43;48.10;103850.56;5039935;28;20059;-93
2021/12/18 09:44:28;;;;;;;33.63;31.80;;;;;;;19.43;48.25;103846.97;5043236;28;20033;-90
2021/12/18 09:46:54;;;;;;;32.28;30.38;;;;;;;19.44;48.30;103844.00;5049755;28;20033;-90
2021/12/18 09:49:20;;;;;;;34.13;31.23;;;;;;;19.44;48.55;103837.69;5051830;28;20029;-90
2021/12/18 09:51:46;;;;;;;31.35;29.65;;;;;;;19.43;48.10;103839.59;5054770;28;20045;-93
2021/12/18 09:54:15;;;;;;;31.33;29.52;;;;;;;19.44;48.32;103833.03;5053197;28;20086;-93
2021/12/18 09:56:40;;;;;;;31.05;29.52;;;;;;;19.44;48.18;103840.41;5051190;28;20140;-91
2021/12/18 10:04:39;;;;;;;31.58;29.88;;;;;;;19.43;48.21;103834.09;5080203;28;20045;-96
2021/12/18 10:07:17;;;;;;;32.22;30.08;;;;;;;19.43;48.09;103825.88;5070274;28;20041;-90
2021/12/18 10:09:49;;;;;;;29.93;28.43;;;;;;;19.43;47.82;103828.63;5075914;28;20095;-93
2021/12/18 10:12:35;;;;;;;38.78;36.05;;;;;;;19.44;47.90;103816.56;5642599;22;20841;-88
2021/12/18 10:17:39;;;;;;;31.08;29.45;;;;;;;19.45;47.75;103814.66;5115563;23;20059;-96
2021/12/18 10:20:11;;;;;;;32.33;30.55;;;;;;;19.46;47.80;103813.63;5065274;28;20039;-94
2021/12/18 10:22:57;;;;;;;32.55;30.85;;;;;;;19.47;47.86;103807.06;5060456;28;20044;-96
2021/12/18 10:25:31;;;;;;;33.42;31.52;;;;;;;19.46;47.80;103806.22;5060663;28;20045;-95
2021/12/18 10:28:16;;;;;;;32.15;30.38;;;;;;;19.48;48.19;103810.63;5099899;23;20064;-92
2021/12/18 10:30:53;;;;;;;32.47;30.70;;;;;;;19.49;47.81;103807.69;5030409;28;20069;-89
2021/12/18 10:33:19;;;;;;;34.70;32.70;;;;;;;19.49;48.19;103809.59;5025030;28;20029;-92
2021/12/18 10:35:48;;;;;;;33.88;31.95;;;;;;;19.50;48.08;103803.84;5033174;28;20080;-96
2021/12/18 10:38:51;;;;;;;32.03;30.40;;;;;;;19.51;47.94;103801.97;5046410;28;20029;-91
2021/12/18 10:41:34;;;;;;;32.45;30.75;;;;;;;19.52;47.89;103804.47;5034034;28;20145;-95
2021/12/18 10:44:07;;;;;;;30.17;28.67;;;;;;;19.52;48.16;103798.97;5032080;28;20026;-95
2021/12/18 10:46:34;;;;;;;32.10;30.50;;;;;;;19.54;48.04;103799.59;5034088;28;20093;-88
2021/12/18 10:49:06;;;;;;;34.10;32.10;;;;;;;19.56;47.84;103796.63;5026010;28;20030;-96
2021/12/18 10:51:33;;;;;;;33.05;31.27;;;;;;;19.56;47.64;103793.91;5032954;28;20044;-92
2021/12/18 10:54:07;;;;;;;32.33;30.58;;;;;;;19.57;48.10;103796.41;5032374;28;20432;-96
2021/12/18 10:56:44;;;;;;;34.20;32.38;;;;;;;19.58;48.20;103795.34;5028426;28;20119;-89
2021/12/18 10:59:48;;;;;;;32.63;30.92;;;;;;;19.58;47.73;103791.75;5032140;28;20033;-96
2021/12/18 11:02:15;;;;;;;31.70;30.00;;;;;;;19.60;47.52;103792.34;5016742;28;20037;-96
2021/12/18 11:04:42;;;;;;;33.30;31.50;;;;;;;19.61;47.48;103799.53;5029299;28;20025;-95
2021/12/18 11:07:19;;;;;;;31.95;30.35;;;;;;;19.62;47.24;103798.44;5030332;28;20037;-95
2021/12/18 11:09:59;;;;;;;33.30;31.60;;;;;;;19.62;47.70;103799.28;5011552;28;20030;-94
2021/12/18 11:15:09;;;;;;;32.50;30.90;;;;;;;19.64;47.40;103799.06;5027390;28;20040;-95
2021/12/18 11:17:35;;;;;;;32.83;30.75;;;;;;;19.65;47.42;103808.97;5011333;28;20113;-96
2021/12/18 11:20:01;;;;;;;32.05;30.45;;;;;;;19.65;47.19;103800.72;5028954;28;20068;-93
2021/12/18 11:22:27;;;;;;;33.03;31.27;;;;;;;19.66;46.81;103805.16;5028314;28;20160;-93
2021/12/18 11:25:05;;;;;;;33.70;32.00;;;;;;;19.66;47.15;103797.78;5012282;28;20623;-94
2021/12/18 11:27:33;;;;;;;32.75;30.95;;;;;;;19.67;46.83;103791.22;5028895;28;20492;-91
2021/12/18 11:30:06;;;;;;;31.90;30.30;;;;;;;19.68;46.89;103789.34;5025059;28;20498;-91
2021/12/18 11:32:42;;;;;;;33.25;31.48;;;;;;;19.69;46.56;103784.69;5027236;28;20048;-92
2021/12/18 11:35:14;;;;;;;33.53;31.83;;;;;;;19.69;46.67;103781.97;5030246;28;20030;-92
2021/12/18 11:37:46;;;;;;;33.13;31.42;;;;;;;19.70;46.73;103778.97;5039951;28;20474;-91
2021/12/18 11:40:18;;;;;;;32.75;31.15;;;;;;;19.71;46.62;103777.09;5013001;28;20459;-92
2021/12/18 11:42:43;;;;;;;34.92;33.15;;;;;;;19.70;46.76;103781.72;5021495;28;20128;-93
2021/12/18 11:45:10;;;;;;;33.47;31.77;;;;;;;19.71;46.66;103777.91;4996069;28;20123;-92
2021/12/18 11:47:42;;;;;;;34.58;32.72;;;;;;;19.71;46.81;103775.19;5029361;28;20033;-92
2021/12/18 11:50:34;;;;;;;33.08;31.38;;;;;;;19.73;46.51;103777.66;5031996;28;20102;-84
2021/12/18 11:53:13;;;;;;;33.83;32.20;;;;;;;19.72;46.64;103765.88;5011936;28;20036;-88
2021/12/18 11:55:51;;;;;;;33.33;31.63;;;;;;;19.73;46.73;103763.97;5028137;28;20519;-90
2021/12/18 11:58:24;;;;;;;33.30;31.27;;;;;;;19.72;46.17;103765.88;5031613;28;20569;-92
2021/12/18 12:01:03;;;;;;;35.55;33.65;;;;;;;19.73;45.94;103767.56;5017545;28;20133;-91
2021/12/18 12:03:38;;;;;;;33.28;31.50;;;;;;;19.75;46.53;103764.56;5032366;28;20043;-89
2021/12/18 12:06:28;;;;;;;33.33;31.63;;;;;;;19.75;46.05;103761.81;5031560;28;20074;-91
2021/12/18 12:09:33;;;;;;;32.50;30.90;;;;;;;19.74;46.13;103758.25;5038835;28;20140;-92
2021/12/18 12:12:04;;;;;;;43.67;30.55;;;;;;;19.75;46.20;103759.09;5033460;28;20587;-90
2021/12/18 12:14:32;;;;;;;33.05;31.25;;;;;;;19.76;46.51;103750.63;5033599;28;20040;-93
2021/12/18 12:17:04;;;;;;;33.13;31.20;;;;;;;19.77;46.62;103745.97;5036532;28;20474;-95